createdAt,value
2023-05-26T00:01:58.277Z,68.55
2023-05-26T00:04:27.755Z,68.55
2023-05-26T00:06:55.713Z,68.64
2023-05-26T00:09:25.300Z,68.80
2023-05-26T00:11:54.195Z,68.84
2023-05-26T00:14:21.988Z,69.10
2023-05-26T00:16:50.040Z,69.13
2023-05-26T00:19:21.493Z,68.94
2023-05-26T00:23:15.223Z,68.30
2023-05-26T00:25:45.304Z,68.23
2023-05-26T00:28:13.446Z,68.08
2023-05-26T00:30:41.339Z,68.22
2023-05-26T00:33:12.588Z,68.61
2023-05-26T00:35:40.555Z,68.77
2023-05-26T00:38:09.065Z,69.11
2023-05-26T00:40:37.945Z,69.14
2023-05-26T00:43:05.995Z,69.25
2023-05-26T00:45:34.813Z,69.35
2023-05-26T00:48:05.971Z,69.44
2023-05-26T00:50:34.589Z,69.74
2023-05-26T00:53:02.610Z,69.80
2023-05-26T00:55:30.574Z,70.23
2023-05-26T00:57:58.477Z,70.32
2023-05-26T01:00:27.387Z,70.44
2023-05-26T01:02:57.366Z,70.49
2023-05-26T01:05:27.374Z,70.58
2023-05-26T01:07:56.800Z,70.88
2023-05-26T01:10:24.644Z,71.10
2023-05-26T01:12:59.700Z,71.52
2023-05-26T01:15:31.415Z,71.76
2023-05-26T01:18:07.602Z,71.73
2023-05-26T01:20:39.891Z,71.70
2023-05-26T01:23:21.137Z,72.04
2023-05-26T01:26:28.561Z,72.29
2023-05-26T01:29:01.803Z,72.73
2023-05-26T01:31:41.609Z,73.24
2023-05-26T01:34:09.513Z,73.55
2023-05-26T01:36:37.480Z,73.72
2023-05-26T01:39:11.273Z,74.11
2023-05-26T01:42:31.065Z,74.45
2023-05-26T01:45:20.095Z,74.86
2023-05-26T01:47:51.411Z,75.18
2023-05-26T01:50:21.153Z,75.45
2023-05-26T01:52:52.572Z,75.74
2023-05-26T01:55:21.358Z,75.97
2023-05-26T01:57:49.054Z,76.23
2023-05-26T02:00:25.193Z,76.54
2023-05-26T02:02:53.181Z,76.96
2023-05-26T02:05:21.000Z,77.32
2023-05-26T02:07:49.797Z,77.61
2023-05-26T02:10:17.640Z,77.89
2023-05-26T02:12:45.222Z,78.13
2023-05-26T02:15:13.500Z,78.39
2023-05-26T02:17:47.046Z,78.92
2023-05-26T02:20:20.088Z,79.25
2023-05-26T02:22:47.978Z,79.51
2023-05-26T02:25:17.282Z,79.80
2023-05-26T02:27:48.790Z,79.93
2023-05-26T02:30:17.222Z,80.28
2023-05-26T02:32:45.483Z,80.64
2023-05-26T02:35:15.265Z,81.00
2023-05-26T02:37:45.574Z,81.23
2023-05-26T02:40:13.958Z,81.46
2023-05-26T02:42:41.616Z,81.73
2023-05-26T02:45:10.044Z,82.01
2023-05-26T02:47:38.885Z,82.29
2023-05-26T02:50:07.455Z,82.46
2023-05-26T02:52:35.315Z,82.72
2023-05-26T02:55:05.398Z,82.89
2023-05-26T02:57:33.302Z,83.24
2023-05-26T03:00:02.613Z,83.39
2023-05-26T03:02:30.895Z,83.51
2023-05-26T03:04:58.853Z,83.64
2023-05-26T03:07:26.615Z,83.86
2023-05-26T03:09:56.656Z,84.00
2023-05-26T03:12:24.397Z,83.97
2023-05-26T03:14:53.082Z,84.13
2023-05-26T03:17:21.331Z,84.08
2023-05-26T03:19:49.345Z,83.99
2023-05-26T03:25:15.681Z,84.06
2023-05-26T03:27:47.686Z,83.90
2023-05-26T03:30:16.341Z,83.76
2023-05-26T03:32:45.352Z,83.52
2023-05-26T03:35:13.404Z,83.65
2023-05-26T03:37:43.822Z,83.44
2023-05-26T03:40:12.318Z,83.31
2023-05-26T03:42:41.373Z,82.89
2023-05-26T03:45:15.131Z,82.68
2023-05-26T03:50:35.417Z,82.50
2023-05-26T03:53:04.520Z,82.23
2023-05-26T03:55:37.353Z,81.69
2023-05-26T03:58:07.064Z,81.15
2023-05-26T04:00:34.871Z,80.20
2023-05-26T04:03:02.956Z,79.25
2023-05-26T04:05:31.525Z,78.05
2023-05-26T04:07:59.598Z,76.95
2023-05-26T04:10:28.389Z,75.77
2023-05-26T04:12:56.568Z,74.80
2023-05-26T04:15:24.533Z,73.87
2023-05-26T04:17:53.276Z,72.90
2023-05-26T04:20:22.255Z,71.93
2023-05-26T04:22:50.690Z,71.40
2023-05-26T04:25:19.583Z,71.00
2023-05-26T04:27:58.209Z,70.14
2023-05-26T04:30:46.149Z,69.58
2023-05-26T04:33:23.708Z,69.16
2023-05-26T04:36:10.395Z,68.64
2023-05-26T04:38:42.777Z,67.91
2023-05-26T04:41:10.567Z,67.54
2023-05-26T04:43:40.761Z,67.03
2023-05-26T04:46:12.195Z,66.38
2023-05-26T04:48:40.178Z,65.91
2023-05-26T04:51:09.804Z,65.45
2023-05-26T04:53:37.719Z,65.65
2023-05-26T04:56:07.666Z,65.00
2023-05-26T04:58:41.177Z,63.26
2023-05-26T05:01:11.172Z,63.20
2023-05-26T05:04:00.659Z,63.69
2023-05-26T05:06:31.109Z,63.40
2023-05-26T05:08:59.026Z,62.82
2023-05-26T05:11:27.453Z,62.54
2023-05-26T05:13:55.511Z,62.55
2023-05-26T05:16:23.718Z,63.06
2023-05-26T05:18:52.169Z,62.97
2023-05-26T05:21:23.415Z,63.39
2023-05-26T05:23:57.426Z,63.56
2023-05-26T05:26:26.859Z,63.78
2023-05-26T05:28:54.700Z,63.58
2023-05-26T05:31:42.854Z,63.51
2023-05-26T05:34:10.909Z,63.85
2023-05-26T05:36:39.297Z,63.57
2023-05-26T05:39:08.699Z,64.00
2023-05-26T05:41:36.979Z,63.19
2023-05-26T05:44:05.264Z,62.44
2023-05-26T05:46:36.894Z,62.92
2023-05-26T05:49:21.203Z,62.02
2023-05-26T05:51:53.386Z,62.11
2023-05-26T05:54:21.252Z,62.14
2023-05-26T05:56:49.315Z,61.95
2023-05-26T05:59:21.254Z,61.92
2023-05-26T06:01:49.254Z,61.74
2023-05-26T06:04:17.161Z,60.78
2023-05-26T06:06:47.608Z,60.33
2023-05-26T06:09:15.256Z,61.05
2023-05-26T06:11:45.180Z,60.86
2023-05-26T06:14:14.453Z,60.75
2023-05-26T06:16:42.210Z,60.56
2023-05-26T06:19:10.105Z,60.96
2023-05-26T06:21:42.528Z,61.59
2023-05-26T06:24:11.377Z,61.70
2023-05-26T06:26:40.486Z,61.72
2023-05-26T06:29:09.006Z,62.29
2023-05-26T06:31:41.215Z,62.39
2023-05-26T06:34:15.803Z,63.28
2023-05-26T06:36:44.963Z,63.41
2023-05-26T06:39:14.215Z,63.02
2023-05-26T06:41:42.777Z,62.69
2023-05-26T06:44:10.541Z,62.43
2023-05-26T06:46:38.620Z,62.69
2023-05-26T06:49:06.915Z,62.76
2023-05-26T06:51:47.663Z,62.10
2023-05-26T06:54:16.362Z,62.22
2023-05-26T06:56:44.185Z,62.09
2023-05-26T06:59:12.759Z,62.09
2023-05-26T07:01:41.765Z,60.66
2023-05-26T07:04:09.679Z,61.27
2023-05-26T07:06:46.472Z,61.50
2023-05-26T07:09:19.831Z,61.69
2023-05-26T07:12:04.000Z,61.20
2023-05-26T07:15:12.088Z,60.88
2023-05-26T07:17:44.742Z,60.76
2023-05-26T07:20:15.071Z,60.24
2023-05-26T07:22:42.881Z,59.53
2023-05-26T07:25:18.234Z,59.32
2023-05-26T07:27:48.077Z,59.35
2023-05-26T07:30:16.542Z,60.03
2023-05-26T07:33:17.326Z,59.17
2023-05-26T07:35:45.445Z,58.32
2023-05-26T07:38:13.828Z,57.64
2023-05-26T07:40:45.465Z,56.64
2023-05-26T07:43:16.079Z,54.67
2023-05-26T07:45:44.064Z,52.60
2023-05-26T07:48:12.072Z,51.57
2023-05-26T07:50:39.914Z,50.15
2023-05-26T07:53:07.776Z,48.62
2023-05-26T07:55:35.546Z,47.39
2023-05-26T07:58:03.400Z,46.51
2023-05-26T08:00:32.295Z,46.30
2023-05-26T08:03:00.478Z,45.53
2023-05-26T08:05:28.437Z,44.78
2023-05-26T08:07:56.613Z,43.79
2023-05-26T08:10:25.234Z,43.41
2023-05-26T08:12:54.189Z,42.41
2023-05-26T08:15:28.097Z,41.28
2023-05-26T08:17:56.044Z,40.99
2023-05-26T08:20:26.579Z,40.12
2023-05-26T08:22:55.865Z,39.49
2023-05-26T08:25:24.546Z,38.64
2023-05-26T08:27:52.526Z,38.03
2023-05-26T08:30:21.058Z,37.12
2023-05-26T12:42:09.520Z,24.80
2023-05-26T12:44:39.186Z,24.87
2023-05-26T12:47:07.337Z,24.11
2023-05-26T12:49:35.037Z,23.81
2023-05-26T12:52:02.773Z,23.85
2023-05-26T12:54:31.047Z,23.25
2023-05-26T12:56:58.879Z,23.42
2023-05-26T12:59:26.862Z,24.56
2023-05-26T13:01:59.125Z,24.19
2023-05-26T13:04:27.833Z,24.26
2023-05-26T13:06:58.468Z,24.19
